Flight Track Log - Related Links

Times and Time Zones

All times are in EDT time to prevent confusion due to time zone crossing. See the ANT536 flight status page for this flight to view local times or setup timezone preferences in your user account.

Time Position Orientation Groundspeed Altitude Reporting Facility
EDT Latitude Longitude Course Direction KTS MPH feet Rate Location/Type
Wed 11:18:15 PM 49.1667 -123.2167 334° Northwest 60 69 1,000  Level Vancouver Center
Wed 11:19:15 PM 49.1833 -123.2833 291° West 210 242 2,700 2,033 Climbing Vancouver Center
Wed 11:20:16 PM 49.2000 -123.3667 287° West 230 265 5,100 2,250 Climbing Vancouver Center
Wed 11:21:15 PM 49.2667 -123.3833 351° North 270 311 7,200 2,471 Climbing Vancouver Center
Wed 11:22:15 PM 49.3500 -123.4167 345° North 280 322 10,000 2,400 Climbing Vancouver Center
Wed 11:23:00 PM 49.7357 -123.6684 334° Northwest  Level FlightAware Approximate
Wed 11:23:15 PM 49.4333 -123.4167 360° North 330 380 12,000  Level Vancouver Center
Wed 11:24:15 PM 49.5333 -123.3833 12° North 340 391 14,800 2,727 Climbing Vancouver Center
Wed 11:25:16 PM 49.6333 -123.3667 North 360 414 17,500 2,650 Climbing Vancouver Center
Wed 11:26:15 PM 49.7333 -123.3333 12° North 380 437 20,100 2,521 Climbing Vancouver Center
Wed 11:27:15 PM 49.8500 -123.3000 10° North 390 449 22,500 2,200 Climbing Vancouver Center
Wed 11:28:15 PM 49.9333 -123.3833 327° Northwest 390 449 24,500 2,050 Climbing Vancouver Center
Wed 11:29:15 PM 50.0500 -123.4667 335° Northwest 400 460 26,600 1,785 Climbing Vancouver Center
Wed 11:30:16 PM 50.1500 -123.5333 337° Northwest 410 472 28,100 1,750 Climbing Vancouver Center
Wed 11:31:15 PM 50.2500 -123.6167 332° Northwest 430 495 30,100 2,269 Climbing Vancouver Center
Wed 11:32:15 PM 50.3500 -123.7000 332° Northwest 410 472 32,600 1,950 Climbing Vancouver Center
Wed 11:33:15 PM 50.4500 -123.7667 337° Northwest 400 460 34,000 1,450 Climbing Vancouver Center
Wed 11:34:15 PM 50.5500 -123.8500 332° Northwest 400 460 35,500 1,000 Climbing Vancouver Center
Wed 11:35:15 PM 50.6500 -123.9333 332° Northwest 410 472 36,000 250 Climbing Vancouver Center
Wed 11:36:15 PM 50.7667 -124.0167 336° Northwest 410 472 36,000  Level Vancouver Center
Wed 11:37:15 PM 50.8667 -124.0833 337° Northwest 410 472 36,000  Level Vancouver Center
Wed 11:38:15 PM 50.9667 -124.1667 332° Northwest 410 472 36,000  Level Vancouver Center
Wed 11:39:15 PM 51.0667 -124.2500 332° Northwest 410 472 36,000  Level Vancouver Center
Wed 11:40:15 PM 51.1667 -124.3333 332° Northwest 410 472 36,000  Level Vancouver Center
Wed 11:41:15 PM 51.2667 -124.4167 332° Northwest 410 472 36,000  Level Vancouver Center
Wed 11:42:15 PM 51.3667 -124.5000 333° Northwest 400 460 36,000  Level Vancouver Center
Wed 11:43:15 PM 51.4667 -124.5500 343° North 400 460 36,000  Level Vancouver Center
Wed 11:44:15 PM 51.5667 -124.6500 328° Northwest 400 460 36,000  Level Vancouver Center
Wed 11:45:16 PM 51.6667 -124.7167 338° Northwest 410 472 36,000  Level Vancouver Center
Wed 11:46:15 PM 51.7667 -124.8000 333° Northwest 410 472 36,000  Level Vancouver Center
Wed 11:47:15 PM 51.8667 -124.8833 333° Northwest 410 472 36,000  Level Vancouver Center
Wed 11:48:15 PM 51.9833 -124.9667 336° Northwest 410 472 36,000  Level Vancouver Center
Wed 11:49:15 PM 52.0667 -125.0500 328° Northwest 400 460 36,000  Level Vancouver Center
Wed 11:50:16 PM 52.1833 -125.1333 336° Northwest 400 460 36,000  Level Vancouver Center
Wed 11:51:15 PM 52.2667 -125.2167 329° Northwest 400 460 36,000  Level Vancouver Center
Wed 11:52:15 PM 52.3667 -125.3000 333° Northwest 400 460 36,000  Level Vancouver Center
Wed 11:53:15 PM 52.4667 -125.3833 333° Northwest 400 460 36,000  Level Vancouver Center
Wed 11:54:15 PM 52.5667 -125.4667 333° Northwest 400 460 36,000  Level Vancouver Center
Wed 11:55:16 PM 52.6667 -125.5667 329° Northwest 400 460 36,000  Level Vancouver Center
Wed 11:56:15 PM 52.7667 -125.6167 343° North 400 460 36,000  Level Vancouver Center
Wed 11:57:15 PM 52.8833 -125.7000 337° Northwest 410 472 36,000  Level Vancouver Center
Wed 11:58:15 PM 52.9667 -125.8000 324° Northwest 410 472 36,000  Level Vancouver Center
Wed 11:59:15 PM 53.0667 -125.8833 333° Northwest 410 472 36,000  Level Vancouver Center
Thu 12:00:16 AM 53.1833 -125.9667 337° Northwest 410 472 36,000  Level Vancouver Center
Thu 12:01:16 AM 53.2667 -126.0500 329° Northwest 410 472 36,000  Level Vancouver Center
Thu 12:02:15 AM 53.3667 -126.1500 329° Northwest 410 472 36,000  Level Vancouver Center
Thu 12:03:15 AM 53.4667 -126.2333 334° Northwest 410 472 36,000  Level Vancouver Center
Thu 12:04:15 AM 53.5667 -126.3333 329° Northwest 410 472 36,000  Level Vancouver Center
Thu 12:05:15 AM 53.6833 -126.4167 337° Northwest 410 472 36,000  Level Vancouver Center
Thu 12:06:15 AM 53.7833 -126.5167 329° Northwest 410 472 36,000  Level Vancouver Center
Thu 12:07:16 AM 53.8833 -126.6000 334° Northwest 410 472 36,000  Level Vancouver Center
Thu 12:08:16 AM 53.9833 -126.6833 334° Northwest 410 472 36,000  Level Vancouver Center
Thu 12:09:16 AM 54.0833 -126.7833 330° Northwest 410 472 36,000  Level Vancouver Center
Thu 12:10:16 AM 54.1667 -126.8833 325° Northwest 410 472 36,000  Level Vancouver Center
Thu 12:11:16 AM 54.2667 -126.9667 334° Northwest 410 472 36,000  Level Vancouver Center
Thu 12:12:16 AM 54.3833 -127.0667 333° Northwest 410 472 36,000  Level Vancouver Center
Thu 12:13:16 AM 54.4667 -127.1500 330° Northwest 410 472 36,000  Level Vancouver Center
Thu 12:14:16 AM 54.5833 -127.2500 334° Northwest 410 472 36,000  Level Vancouver Center
Thu 12:15:16 AM 54.6833 -127.3500 330° Northwest 410 472 36,000  Level Vancouver Center
Thu 12:16:16 AM 54.7833 -127.4333 334° Northwest 410 472 36,000  Level Vancouver Center
Thu 12:17:16 AM 54.8833 -127.5333 330° Northwest 430 495 36,000  Level Vancouver Center
Thu 12:18:16 AM 54.9667 -127.6333 325° Northwest 410 472 36,000  Level Vancouver Center
Thu 12:19:16 AM 55.0833 -127.7333 334° Northwest 410 472 36,000  Level Vancouver Center
Thu 12:20:16 AM 55.1833 -127.8333 330° Northwest 400 460 36,000  Level Vancouver Center
Thu 12:21:16 AM 55.2833 -127.9333 330° Northwest 410 472 36,000  Level Vancouver Center
Thu 12:22:16 AM 55.3833 -128.0167 335° Northwest 410 472 36,000  Level Vancouver Center
Thu 12:23:16 AM 55.4667 -128.1167 326° Northwest 400 460 36,000  Level Vancouver Center
Thu 12:24:16 AM 55.5667 -128.2167 331° Northwest 400 460 36,000  Level Vancouver Center
Thu 12:25:16 AM 55.6667 -128.3167 331° Northwest 410 472 36,000  Level Vancouver Center
Thu 12:26:16 AM 55.7667 -128.4167 331° Northwest 400 460 36,000  Level Vancouver Center
Thu 12:27:16 AM 55.8667 -128.5167 331° Northwest 410 472 36,000  Level Vancouver Center
Thu 12:28:16 AM 55.9500 -128.6167 326° Northwest 400 460 36,000  Level Vancouver Center
Thu 12:29:16 AM 56.0500 -128.7167 331° Northwest 400 460 36,000  Level Vancouver Center
Thu 12:30:16 AM 56.1500 -128.8167 331° Northwest 400 460 36,000  Level Vancouver Center
Thu 12:31:16 AM 56.2500 -128.9000 335° Northwest 400 460 36,000  Level Vancouver Center
Thu 12:32:16 AM 56.3500 -129.0000 331° Northwest 400 460 36,000  Level Vancouver Center
Thu 12:33:16 AM 56.4333 -129.1000 326° Northwest 410 472 36,000  Level Vancouver Center
Thu 12:34:16 AM 56.5333 -129.2333 324° Northwest 410 472 36,000  Level Vancouver Center
Thu 12:35:16 AM 56.6333 -129.3167 335° Northwest 400 460 36,000  Level Vancouver Center
Thu 12:36:16 AM 56.7167 -129.4167 327° Northwest 400 460 36,000  Level Vancouver Center
Thu 12:37:16 AM 56.8167 -129.5167 331° Northwest 400 460 36,000  Level Vancouver Center
Thu 12:38:16 AM 56.9167 -129.6500 324° Northwest 390 449 36,000  Level Vancouver Center
Thu 12:40:16 AM 57.0833 -129.9000 321° Northwest 380 437 36,000  Level Vancouver Center
Thu 12:42:00 AM 57.2400 -130.0875 327° Northwest  Level FlightAware Approximate
Thu 12:49:00 AM 57.8616 -130.8844 324° Northwest  Level FlightAware Approximate
Thu 12:50:00 AM 57.9479 -131.0059 323° Northwest  Level FlightAware Approximate
Thu 12:51:00 AM 58.0341 -131.1279 323° Northwest  Level FlightAware Approximate
Thu 12:52:00 AM 58.1202 -131.2505 323° Northwest  Level FlightAware Approximate
Thu 12:53:00 AM 58.2062 -131.3738 323° Northwest  Level FlightAware Approximate
Thu 12:54:00 AM 58.2920 -131.4976 323° Northwest  Level FlightAware Approximate
Thu 12:55:00 AM 58.3784 -131.6203 324° Northwest  Level FlightAware Approximate
Thu 12:56:00 AM 58.4650 -131.7428 324° Northwest  Level FlightAware Approximate
Thu 12:57:00 AM 58.5514 -131.8660 323° Northwest  Level FlightAware Approximate
Thu 12:58:00 AM 58.6376 -131.9901 321° Northwest  Level FlightAware Approximate
Thu 12:59:00 AM 58.7210 -132.1215 321° Northwest  Level FlightAware Approximate
Thu 01:00:00 AM 58.8042 -132.2535 321° Northwest  Level FlightAware Approximate
Thu 01:01:00 AM 58.8900 -132.3793 324° Northwest  Level FlightAware Approximate
Thu 01:02:00 AM 58.9768 -132.5032 323° Northwest  Level FlightAware Approximate
Thu 01:03:00 AM 59.0632 -132.6283 323° Northwest  Level FlightAware Approximate
Thu 01:04:00 AM 59.1467 -132.7609 321° Northwest  Level FlightAware Approximate
Thu 01:05:00 AM 59.2299 -132.8945 321° Northwest  Level FlightAware Approximate
Thu 01:06:00 AM 59.3150 -133.0239 321° Northwest  Level FlightAware Approximate
Thu 01:07:00 AM 59.3986 -133.1574 321° Northwest  Level FlightAware Approximate
Thu 01:08:00 AM 59.4835 -133.2876 328° Northwest  Level FlightAware Approximate
Thu 01:09:00 AM 59.5711 -133.4106 321° Northwest  Level FlightAware Approximate
Thu 01:10:00 AM 59.6547 -133.5452 321° Northwest  Level FlightAware Approximate
Thu 01:11:00 AM 59.7380 -133.6805 321° Northwest  Level FlightAware Approximate
Thu 01:12:00 AM 59.8213 -133.8164 321° Northwest  Level FlightAware Approximate
Thu 01:13:00 AM 59.9044 -133.9530 321° Northwest  Level FlightAware Approximate
Thu 01:14:00 AM 59.9874 -134.0903 320° Northwest  Level FlightAware Approximate
Thu 01:15:00 AM 60.0703 -134.2281 320° Northwest  Level FlightAware Approximate
Thu 01:16:00 AM 60.1534 -134.3658 321° Northwest  Level FlightAware Approximate
Thu 01:17:00 AM 60.2373 -134.5020 321° Northwest  Level FlightAware Approximate
Thu 01:18:00 AM 60.3202 -134.6407 320° Northwest  Level FlightAware Approximate
Thu 01:19:00 AM 60.4027 -134.7809 320° Northwest  Level FlightAware Approximate
Thu 01:20:00 AM 60.4862 -134.9190 321° Northwest  Level FlightAware Approximate
Thu 01:21:00 AM 60.5700 -135.0567 316° Northwest  Level FlightAware Approximate
Thu 01:22:00 AM 60.6602 -135.0966 20° North  Level FlightAware Approximate
Thu 01:23:00 AM 60.7000 -135.0667 20° North  Level FlightAware Approximate
Thu 01:24:00 AM 60.7095 -135.0673 20° North  Level Estimated
Thu 01:25:00 AM 60.7095 -135.0673 20° North  Level Estimated
Thu 01:26:00 AM 60.7095 -135.0673 20° North  Level Estimated
Thu 01:27:00 AM 60.7095 -135.0673 20° North  Level Estimated
Thu 01:28:00 AM 60.7095 -135.0673 20° North  Level Estimated
Thu 01:29:00 AM 60.7095 -135.0673 20° North  Level Estimated
Thu 01:30:00 AM 60.7095 -135.0673 20° North  Level Estimated
Thu 01:31:00 AM 60.7095 -135.0673 20° North  Level Estimated
Thu 01:32:00 AM 60.7095 -135.0673 20° North  Level Estimated
Thu 01:33:00 AM 60.7095 -135.0673 20° North  Level Estimated
Thu 01:34:00 AM 60.7095 -135.0673 20° North  Level Estimated
Thu 01:35:00 AM 60.7095 -135.0673 20° North  Level Estimated

Login

Don't have an account? Register now (free) for customized features, flight alerts, and more!